X  Sluiten METAR luchtvaart weer gegevens      EHAM Amsterdam Airport Schiphol
Temperatuur
17°C Temperatuur
11°C Dauwpunt
68% Vochtigheid



Wind
21 KM/U
13 MPH
6 M/S
11 KTS



250°
WZW
Huidig weer

Wat bewolking Wat bewolking
Luchtdruk 1014.9 (hPa) - 29.97 (inHg)
Zicht 6 (mijl) - 9.7 (km)
Vliegveld
Vliegveld code EHAM

Locatie : Amsterdam Airport Schiphol
Afstand: 2 (km)

Metar:
EHAM 231755Z 25011KT 220V280 9999 FEW025 17/11 Q1015 NOSIG

Tijd: 23-05-2024 19:55 CEST